Time;durP1;ratioP1;P1;durP2;ratioP2;P2;SDS_P1;SDS_P2;PMS_P1;PMS_P2;Temp;Humidity;BMP_temperature;BMP_pressure;BME280_temperature;BME280_humidity;BME280_pressure;Samples;Min_cycle;Max_cycle;Signal;HPM_P1;HPM_P2
2023/10/07 00:01:37;;;;;;;9.50;4.07;;;;;;;;;;7372819;19;20707;-68
2023/10/07 00:04:05;;;;;;;11.15;4.30;;;;;;;;;;7394274;19;20006;-68
2023/10/07 00:06:31;;;;;;;9.57;4.38;;;;;;;;;;7372968;19;20007;-68
2023/10/07 00:08:58;;;;;;;8.80;4.43;;;;;;;;;;7372770;19;20022;-68
2023/10/07 00:11:27;;;;;;;9.60;4.10;;;;;;;;;;7372693;19;20433;-68
2023/10/07 00:13:54;;;;;;;10.35;4.40;;;;;;;;;;7369677;19;20435;-68
2023/10/07 00:16:23;;;;;;;12.52;4.80;;;;;;;;;;7372600;19;20006;-68
2023/10/07 00:18:48;;;;;;;9.63;4.00;;;;;;;;;;7393782;19;20322;-68
2023/10/07 00:21:16;;;;;;;10.77;4.30;;;;;;;;;;7371841;19;20071;-68
2023/10/07 00:23:42;;;;;;;9.93;4.53;;;;;;;;;;7369884;19;20031;-68
2023/10/07 00:26:09;;;;;;;10.20;4.68;;;;;;;;;;7373032;19;20002;-68
2023/10/07 00:28:38;;;;;;;8.05;4.20;;;;;;;;;;7372211;19;20480;-68
2023/10/07 00:31:10;;;;;;;9.30;4.38;;;;;;;;;;7394103;19;20464;-68
2023/10/07 00:34:02;;;;;;;10.32;4.13;;;;;;;;;;7369128;19;20002;-68
2023/10/07 00:39:08;;;;;;;;;;;;;;;;;;7371856;19;20172;-68
2023/10/07 00:41:58;;;;;;;11.50;4.03;;;;;;;;;;7369494;19;19935;-68
2023/10/07 00:44:32;;;;;;;10.50;4.65;;;;;;;;;;7370135;19;20007;-68
2023/10/07 00:49:42;;;;;;;9.27;5.30;;;;;;;;;;7371903;19;20022;-68
2023/10/07 00:52:29;;;;;;;;;;;;;;;;;;;;;
2023/10/07 00:57:35;;;;;;;10.88;5.15;;;;;;;;;;7370324;19;20005;-68
2023/10/07 01:00:28;;;;;;;10.73;4.35;;;;;;;;;;7369202;19;20285;-68
2023/10/07 01:03:12;;;;;;;11.07;4.32;;;;;;;;;;7367181;19;20031;-68
2023/10/07 01:05:44;;;;;;;11.55;4.75;;;;;;;;;;7370581;19;20009;-68
2023/10/07 01:08:09;;;;;;;12.40;4.60;;;;;;;;;;7370810;19;20741;-68
2023/10/07 01:10:38;;;;;;;10.10;4.43;;;;;;;;;;7368430;19;20086;-68
2023/10/07 01:13:23;;;;;;;9.55;4.57;;;;;;;;;;7389809;19;20475;-68
2023/10/07 01:15:49;;;;;;;10.90;4.80;;;;;;;;;;7370369;19;20006;-68
2023/10/07 01:18:19;;;;;;;10.13;4.10;;;;;;;;;;7369625;19;20059;-68
2023/10/07 01:23:23;;;;;;;11.25;4.75;;;;;;;;;;7369350;19;20492;-68
2023/10/07 01:25:52;;;;;;;13.90;4.38;;;;;;;;;;7369237;19;20010;-68
2023/10/07 01:28:17;;;;;;;10.02;4.70;;;;;;;;;;7369850;19;20476;-68
2023/10/07 01:31:07;;;;;;;10.05;4.40;;;;;;;;;;7391385;19;20007;-68
2023/10/07 01:33:38;;;;;;;7.93;4.22;;;;;;;;;;7366564;19;20010;-68
2023/10/07 01:38:44;;;;;;;12.38;5.53;;;;;;;;;;7370407;19;20473;-68
2023/10/07 01:41:14;;;;;;;10.88;4.47;;;;;;;;;;7368361;19;20019;-68
2023/10/07 01:43:48;;;;;;;12.63;4.85;;;;;;;;;;7367034;19;20407;-68
2023/10/07 01:46:19;;;;;;;11.57;5.25;;;;;;;;;;7370286;19;20003;-68
2023/10/07 01:48:55;;;;;;;11.45;5.40;;;;;;;;;;7390677;19;20010;-68
2023/10/07 01:51:20;;;;;;;10.68;5.43;;;;;;;;;;7368820;19;20033;-68
2023/10/07 01:53:46;;;;;;;12.90;5.32;;;;;;;;;;7367282;19;20833;-68
2023/10/07 01:56:14;;;;;;;10.27;4.60;;;;;;;;;;7369809;19;20006;-68
2023/10/07 01:58:40;;;;;;;11.70;4.60;;;;;;;;;;7368831;19;20376;-68
2023/10/07 02:01:05;;;;;;;11.65;5.10;;;;;;;;;;7389539;19;20002;-68
2023/10/07 02:03:32;;;;;;;13.88;5.70;;;;;;;;;;7366059;19;20532;-68
2023/10/07 02:05:58;;;;;;;10.55;5.20;;;;;;;;;;7368632;19;20010;-68
2023/10/07 02:08:25;;;;;;;10.45;5.25;;;;;;;;;;7366142;19;20366;-68
2023/10/07 02:10:58;;;;;;;11.68;4.95;;;;;;;;;;7367800;19;20015;-68
2023/10/07 02:13:28;;;;;;;10.32;5.60;;;;;;;;;;7366279;19;20618;-68
2023/10/07 02:15:54;;;;;;;14.93;5.80;;;;;;;;;;7390259;19;20011;-68
2023/10/07 02:18:20;;;;;;;14.65;6.00;;;;;;;;;;7367972;19;20007;-68
2023/10/07 02:20:49;;;;;;;15.07;6.15;;;;;;;;;;7368270;19;20531;-67
2023/10/07 02:23:21;;;;;;;18.25;6.88;;;;;;;;;;7366487;19;20017;-67
2023/10/07 02:25:49;;;;;;;17.42;6.38;;;;;;;;;;7368481;19;20010;-67
2023/10/07 02:28:15;;;;;;;22.33;7.07;;;;;;;;;;7368665;19;19999;-67
2023/10/07 02:33:42;;;;;;;25.70;7.03;;;;;;;;;;7363605;19;20039;-68
2023/10/07 02:36:28;;;;;;;20.20;6.47;;;;;;;;;;7369246;19;20005;-67
2023/10/07 02:38:54;;;;;;;25.98;7.65;;;;;;;;;;7367239;19;20322;-67
2023/10/07 02:41:20;;;;;;;14.75;6.03;;;;;;;;;;7366012;19;20006;-68
2023/10/07 02:43:48;;;;;;;14.48;5.90;;;;;;;;;;7364219;19;20057;-67
2023/10/07 02:46:33;;;;;;;15.02;5.68;;;;;;;;;;7367990;19;20077;-68
2023/10/07 02:49:06;;;;;;;20.52;6.80;;;;;;;;;;7388922;19;20010;-68
2023/10/07 02:51:33;;;;;;;15.25;5.93;;;;;;;;;;7366379;19;20078;-68
2023/10/07 02:54:04;;;;;;;12.65;5.65;;;;;;;;;;7365813;19;20007;-68
2023/10/07 02:56:43;;;;;;;11.07;5.80;;;;;;;;;;7366883;19;20017;-68
2023/10/07 02:59:22;;;;;;;12.43;5.03;;;;;;;;;;7367153;19;20030;-68
2023/10/07 03:02:12;;;;;;;10.50;4.95;;;;;;;;;;7365486;19;20007;-68
2023/10/07 03:04:34;;;;;;;15.23;5.65;;;;;;;;;;7365132;19;20520;-68
2023/10/07 03:07:00;;;;;;;17.55;6.75;;;;;;;;;;7388932;19;20007;-68
2023/10/07 03:09:27;;;;;;;16.15;5.80;;;;;;;;;;7366686;19;20520;-68
2023/10/07 03:11:53;;;;;;;12.13;5.35;;;;;;;;;;7365369;19;20015;-68
2023/10/07 03:14:25;;;;;;;12.55;5.00;;;;;;;;;;7366635;19;20106;-68
2023/10/07 03:16:59;;;;;;;12.15;5.65;;;;;;;;;;7367315;19;20009;-68
2023/10/07 03:19:45;;;;;;;12.43;4.93;;;;;;;;;;7366848;19;20033;-68
2023/10/07 03:22:15;;;;;;;10.93;5.00;;;;;;;;;;7375383;19;19990;-68
2023/10/07 03:24:48;;;;;;;14.93;5.03;;;;;;;;;;7387375;19;20034;-68
2023/10/07 03:27:22;;;;;;;12.95;5.03;;;;;;;;;;7365697;19;20006;-68
2023/10/07 03:30:12;;;;;;;10.32;4.85;;;;;;;;;;7365846;19;20035;-68
2023/10/07 03:32:54;;;;;;;11.30;4.80;;;;;;;;;;7364054;19;20024;-68
2023/10/07 03:35:35;;;;;;;12.48;4.72;;;;;;;;;;7373063;19;20033;-68
2023/10/07 03:38:04;;;;;;;;;;;;;;;;;;7374313;19;20093;-68
2023/10/07 03:40:35;;;;;;;9.10;3.92;;;;;;;;;;7371969;19;19923;-68
2023/10/07 03:43:00;;;;;;;;;;;;;;;;;;7393152;19;20070;-68
2023/10/07 03:45:28;;;;;;;9.48;4.28;;;;;;;;;;7372378;19;20353;-68
2023/10/07 03:47:54;;;;;;;10.82;5.07;;;;;;;;;;7372415;19;20002;-68
2023/10/07 03:50:34;;;;;;;14.77;5.20;;;;;;;;;;7372539;19;20006;-68
2023/10/07 03:53:00;;;;;;;9.30;4.65;;;;;;;;;;7370668;19;20017;-68
2023/10/07 03:55:27;;;;;;;15.65;6.30;;;;;;;;;;7371825;19;20003;-68
2023/10/07 03:57:53;;;;;;;12.52;5.35;;;;;;;;;;7393486;19;19998;-68
2023/10/07 04:00:19;;;;;;;12.25;5.55;;;;;;;;;;7369093;19;20012;-68
2023/10/07 04:02:45;;;;;;;11.57;5.88;;;;;;;;;;7366296;19;20034;-68
2023/10/07 04:05:12;;;;;;;12.02;5.75;;;;;;;;;;7368127;19;20468;-68
2023/10/07 04:07:38;;;;;;;12.23;5.60;;;;;;;;;;7368838;19;20045;-68
2023/10/07 04:10:21;;;;;;;12.40;5.47;;;;;;;;;;7387341;19;20021;-68
2023/10/07 04:12:47;;;;;;;10.82;5.82;;;;;;;;;;7370335;19;20019;-67
2023/10/07 04:15:17;;;;;;;11.50;5.95;;;;;;;;;;7374024;19;20377;-67
2023/10/07 04:17:44;;;;;;;13.50;6.43;;;;;;;;;;7371233;19;20491;-67
2023/10/07 04:20:43;;;;;;;14.90;6.53;;;;;;;;;;7371230;19;20027;-68
2023/10/07 04:23:05;;;;;;;16.38;6.65;;;;;;;;;;7368727;19;20003;-68
2023/10/07 04:25:31;;;;;;;21.95;9.02;;;;;;;;;;7370953;19;20339;-68
2023/10/07 04:27:57;;;;;;;11.88;5.97;;;;;;;;;;7393088;19;20025;-68
2023/10/07 04:30:39;;;;;;;14.82;6.63;;;;;;;;;;7371222;19;20007;-68
2023/10/07 04:33:10;;;;;;;12.55;6.70;;;;;;;;;;7367532;19;20006;-67
2023/10/07 04:35:37;;;;;;;10.65;5.88;;;;;;;;;;7370199;19;20009;-68
2023/10/07 04:38:09;;;;;;;15.25;6.05;;;;;;;;;;7370271;19;20356;-68
2023/10/07 04:43:35;;;;;;;13.43;5.70;;;;;;;;;;7369888;19;20010;-68
2023/10/07 04:46:06;;;;;;;12.13;5.97;;;;;;;;;;7391201;19;19995;-68
2023/10/07 04:48:43;;;;;;;22.13;9.75;;;;;;;;;;7371855;19;20010;-67
2023/10/07 04:51:13;;;;;;;16.65;8.68;;;;;;;;;;7372684;19;20100;-67
2023/10/07 04:53:39;;;;;;;30.30;15.82;;;;;;;;;;7371857;19;20469;-68
2023/10/07 04:56:09;;;;;;;20.90;10.40;;;;;;;;;;7363055;19;20120;-70
2023/10/07 04:58:34;;;;;;;19.35;10.40;;;;;;;;;;7369361;19;20031;-70
2023/10/07 05:01:06;;;;;;;20.55;9.15;;;;;;;;;;7389534;19;20006;-69
2023/10/07 05:03:32;;;;;;;51.45;27.15;;;;;;;;;;7367655;19;20051;-69
2023/10/07 05:05:58;;;;;;;31.77;17.15;;;;;;;;;;7368044;19;21032;-69
2023/10/07 05:08:24;;;;;;;19.15;10.00;;;;;;;;;;7367205;19;20555;-69
2023/10/07 05:10:52;;;;;;;16.63;8.75;;;;;;;;;;7366806;19;20006;-69
2023/10/07 05:13:18;;;;;;;18.60;9.23;;;;;;;;;;7366337;19;20023;-70
2023/10/07 05:15:44;;;;;;;18.25;7.65;;;;;;;;;;7387190;19;20668;-69
2023/10/07 05:18:12;;;;;;;16.42;7.60;;;;;;;;;;7367296;19;20076;-69
2023/10/07 05:20:38;;;;;;;16.38;7.97;;;;;;;;;;7365597;19;20378;-70
2023/10/07 05:23:04;;;;;;;15.05;7.95;;;;;;;;;;7364088;19;20020;-69
2023/10/07 05:25:43;;;;;;;16.13;7.68;;;;;;;;;;7367776;19;20007;-69
2023/10/07 05:28:16;;;;;;;15.38;8.13;;;;;;;;;;7389355;19;19999;-69
2023/10/07 05:30:50;;;;;;;14.77;7.68;;;;;;;;;;7367088;19;20031;-69
2023/10/07 05:33:17;;;;;;;13.88;6.97;;;;;;;;;;7364239;19;20002;-69
2023/10/07 05:35:43;;;;;;;17.00;7.70;;;;;;;;;;7366818;19;20626;-69
2023/10/07 05:38:09;;;;;;;14.45;7.32;;;;;;;;;;7366603;19;20009;-67
2023/10/07 05:40:39;;;;;;;10.77;6.22;;;;;;;;;;7364439;19;20010;-67
2023/10/07 05:43:08;;;;;;;15.60;7.43;;;;;;;;;;7386872;19;20350;-68
2023/10/07 05:45:34;;;;;;;15.63;7.55;;;;;;;;;;7366526;19;20398;-67
2023/10/07 05:48:03;;;;;;;16.27;7.20;;;;;;;;;;7366888;19;20093;-70
2023/10/07 05:50:32;;;;;;;15.98;7.35;;;;;;;;;;7360730;19;19998;-69
2023/10/07 05:52:58;;;;;;;13.00;6.72;;;;;;;;;;7364625;19;20037;-69
2023/10/07 05:55:23;;;;;;;15.80;6.43;;;;;;;;;;7365304;19;20009;-68
2023/10/07 05:57:51;;;;;;;10.45;6.00;;;;;;;;;;7387500;19;20003;-71
2023/10/07 06:00:18;;;;;;;15.25;6.00;;;;;;;;;;7365703;19;20508;-69
2023/10/07 06:02:43;;;;;;;12.25;5.18;;;;;;;;;;7365738;19;20002;-68
2023/10/07 06:05:10;;;;;;;11.95;5.38;;;;;;;;;;7366513;19;20011;-68
2023/10/07 06:07:38;;;;;;;10.23;5.38;;;;;;;;;;7367291;19;20047;-68
2023/10/07 06:10:06;;;;;;;10.13;5.82;;;;;;;;;;7388739;19;20002;-69
2023/10/07 06:12:33;;;;;;;14.40;5.28;;;;;;;;;;7364934;19;20125;-67
2023/10/07 06:14:59;;;;;;;11.68;4.70;;;;;;;;;;7367026;19;20002;-68
2023/10/07 06:17:26;;;;;;;12.15;5.32;;;;;;;;;;7366888;19;20008;-74
2023/10/07 06:19:51;;;;;;;12.88;5.07;;;;;;;;;;7366802;19;20081;-73
2023/10/07 06:22:17;;;;;;;11.23;5.18;;;;;;;;;;7365367;19;19999;-73
2023/10/07 06:24:43;;;;;;;16.27;5.47;;;;;;;;;;7390263;19;20015;-75
2023/10/07 06:27:12;;;;;;;11.27;4.82;;;;;;;;;;7366089;19;19998;-74
2023/10/07 06:29:43;;;;;;;10.02;5.07;;;;;;;;;;7368821;19;20002;-73
2023/10/07 06:32:25;;;;;;;10.15;4.60;;;;;;;;;;7368242;19;20070;-73
2023/10/07 06:34:59;;;;;;;11.48;5.57;;;;;;;;;;7366622;19;20120;-74
2023/10/07 06:37:30;;;;;;;10.48;4.47;;;;;;;;;;7368046;19;20383;-74
2023/10/07 06:40:00;;;;;;;13.07;5.05;;;;;;;;;;7389646;19;20007;-73
2023/10/07 06:42:26;;;;;;;12.07;5.03;;;;;;;;;;7369162;19;20350;-73
2023/10/07 06:44:55;;;;;;;10.57;4.40;;;;;;;;;;7370088;19;20017;-73
2023/10/07 06:47:22;;;;;;;9.68;4.10;;;;;;;;;;7372609;19;20032;-73
2023/10/07 06:49:48;;;;;;;10.23;4.80;;;;;;;;;;7369473;19;20797;-72
2023/10/07 06:52:13;;;;;;;8.23;4.70;;;;;;;;;;7369786;19;20040;-74
2023/10/07 06:54:38;;;;;;;9.68;4.40;;;;;;;;;;7391269;19;20412;-74
2023/10/07 06:57:10;;;;;;;13.90;5.20;;;;;;;;;;7369736;19;20074;-74
2023/10/07 06:59:45;;;;;;;8.57;4.35;;;;;;;;;;7370201;19;20359;-74
2023/10/07 07:02:17;;;;;;;10.75;5.18;;;;;;;;;;7370000;19;20006;-75
2023/10/07 07:04:43;;;;;;;15.23;6.57;;;;;;;;;;7369432;19;20472;-73
2023/10/07 07:07:11;;;;;;;9.82;4.75;;;;;;;;;;7390284;19;20019;-73
2023/10/07 07:09:42;;;;;;;9.15;3.60;;;;;;;;;;7376598;19;20018;-74
2023/10/07 07:12:12;;;;;;;8.90;4.07;;;;;;;;;;7376219;19;20396;-72
2023/10/07 07:14:42;;;;;;;8.55;4.80;;;;;;;;;;7377781;19;20007;-73
2023/10/07 07:22:44;;;;;;;8.25;4.10;;;;;;;;;;7365378;19;20831;-73
2023/10/07 07:25:12;;;;;;;9.45;4.65;;;;;;;;;;7393606;19;20022;-72
2023/10/07 07:27:50;;;;;;;8.30;3.92;;;;;;;;;;7369623;19;20027;-76
2023/10/07 07:30:29;;;;;;;9.88;4.60;;;;;;;;;;7373306;19;20107;-74
2023/10/07 07:32:59;;;;;;;10.13;4.60;;;;;;;;;;7370586;19;20010;-73
2023/10/07 07:35:43;;;;;;;13.38;4.60;;;;;;;;;;7371587;19;20002;-74
2023/10/07 07:38:22;;;;;;;10.43;5.07;;;;;;;;;;7375008;19;20063;-75
2023/10/07 07:40:52;;;;;;;13.18;4.97;;;;;;;;;;7373294;19;20377;-74
2023/10/07 07:43:19;;;;;;;11.15;4.53;;;;;;;;;;7369946;19;19999;-72
2023/10/07 07:45:46;;;;;;;12.80;5.03;;;;;;;;;;7396301;19;20003;-74
2023/10/07 07:48:12;;;;;;;9.23;5.00;;;;;;;;;;7371225;19;20452;-74
2023/10/07 07:50:39;;;;;;;11.85;5.25;;;;;;;;;;7374399;19;20058;-76
2023/10/07 07:53:12;;;;;;;10.25;4.93;;;;;;;;;;7371584;19;20013;-75
2023/10/07 07:55:44;;;;;;;9.07;4.35;;;;;;;;;;7376090;19;20002;-75
2023/10/07 07:58:10;;;;;;;10.48;4.82;;;;;;;;;;7393656;19;20025;-73
2023/10/07 08:00:42;;;;;;;10.65;4.35;;;;;;;;;;7370386;19;20412;-72
2023/10/07 08:03:07;;;;;;;10.20;4.57;;;;;;;;;;7369854;19;19999;-72
2023/10/07 08:05:39;;;;;;;10.50;4.88;;;;;;;;;;7372170;19;20489;-69
2023/10/07 08:08:09;;;;;;;9.57;4.53;;;;;;;;;;7370482;19;20103;-71
2023/10/07 08:10:35;;;;;;;11.88;4.45;;;;;;;;;;7365492;19;20034;-74
2023/10/07 08:13:01;;;;;;;10.82;4.75;;;;;;;;;;7389697;19;19998;-70
2023/10/07 08:15:38;;;;;;;8.93;4.32;;;;;;;;;;7369575;19;20074;-70
2023/10/07 08:18:06;;;;;;;11.65;4.80;;;;;;;;;;7373158;19;20129;-73
2023/10/07 08:20:37;;;;;;;11.43;4.70;;;;;;;;;;7367873;19;20010;-73
2023/10/07 08:23:08;;;;;;;13.27;5.05;;;;;;;;;;7369818;19;20009;-72
2023/10/07 08:25:45;;;;;;;7.05;3.80;;;;;;;;;;7370146;19;20425;-67
2023/10/07 08:28:59;;;;;;;10.00;4.65;;;;;;;;;;7378450;19;20024;-67
2023/10/07 08:31:12;;;;;;;14.40;4.90;;;;;;;;;;7391043;19;20031;-67
2023/10/07 08:33:38;;;;;;;10.75;4.72;;;;;;;;;;7365713;19;20007;-70
2023/10/07 08:36:07;;;;;;;9.73;4.75;;;;;;;;;;7367310;19;20039;-68
2023/10/07 08:38:40;;;;;;;8.50;4.10;;;;;;;;;;7367625;19;20002;-66
2023/10/07 08:41:07;;;;;;;9.13;4.35;;;;;;;;;;7367359;19;20007;-66
2023/10/07 08:43:45;;;;;;;11.10;4.50;;;;;;;;;;7365032;19;20018;-68
2023/10/07 08:46:16;;;;;;;12.07;5.28;;;;;;;;;;7379678;19;20006;-67
2023/10/07 08:48:56;;;;;;;8.15;3.88;;;;;;;;;;7382170;19;20021;-67
2023/10/07 08:51:24;;;;;;;8.95;4.18;;;;;;;;;;7364925;19;20102;-67
2023/10/07 08:53:57;;;;;;;7.65;3.88;;;;;;;;;;7340710;19;20014;-69
2023/10/07 08:56:27;;;;;;;9.15;3.90;;;;;;;;;;7366167;19;20027;-67
2023/10/07 08:58:53;;;;;;;10.52;4.03;;;;;;;;;;7388254;19;20412;-68
2023/10/07 09:01:19;;;;;;;8.18;3.97;;;;;;;;;;7363820;19;20006;-72
2023/10/07 09:03:48;;;;;;;8.38;3.67;;;;;;;;;;7356120;19;20030;-73
2023/10/07 09:06:14;;;;;;;9.30;3.90;;;;;;;;;;7368789;19;20361;-72
2023/10/07 09:08:39;;;;;;;8.90;3.50;;;;;;;;;;7400068;19;20027;-72
2023/10/07 09:11:08;;;;;;;19.02;8.82;;;;;;;;;;7386967;19;20014;-72
2023/10/07 09:13:34;;;;;;;13.25;5.95;;;;;;;;;;7371600;19;20484;-73
2023/10/07 09:15:59;;;;;;;8.13;3.85;;;;;;;;;;7371219;19;20006;-73
2023/10/07 09:18:31;;;;;;;10.10;3.65;;;;;;;;;;7366467;19;20010;-72
2023/10/07 09:20:57;;;;;;;6.90;3.80;;;;;;;;;;7366901;19;20027;-73
2023/10/07 09:23:24;;;;;;;7.18;3.47;;;;;;;;;;7385537;19;20011;-73
2023/10/07 09:25:51;;;;;;;6.88;3.40;;;;;;;;;;7376197;19;20018;-73
2023/10/07 09:28:26;;;;;;;7.45;3.30;;;;;;;;;;7374754;19;20497;-72
2023/10/07 09:30:51;;;;;;;6.85;3.13;;;;;;;;;;7367998;19;20384;-72
2023/10/07 09:33:18;;;;;;;11.20;4.13;;;;;;;;;;7363094;19;20006;-73
2023/10/07 09:35:46;;;;;;;6.13;2.97;;;;;;;;;;7388111;19;19995;-71
2023/10/07 09:38:34;;;;;;;6.75;3.70;;;;;;;;;;7365883;19;20029;-74
2023/10/07 09:41:12;;;;;;;8.52;3.72;;;;;;;;;;7366005;19;20011;-73
2023/10/07 09:43:47;;;;;;;8.32;3.47;;;;;;;;;;7365844;19;20010;-72
2023/10/07 09:46:14;;;;;;;7.53;3.33;;;;;;;;;;7366943;19;20015;-75
2023/10/07 09:48:43;;;;;;;7.85;3.45;;;;;;;;;;7368368;19;20081;-74
2023/10/07 09:51:22;;;;;;;6.03;3.08;;;;;;;;;;7367740;19;20503;-73
2023/10/07 09:54:22;;;;;;;5.18;2.60;;;;;;;;;;7364717;19;20381;-73
2023/10/07 09:57:24;;;;;;;6.28;3.20;;;;;;;;;;7366451;19;20095;-72
2023/10/07 10:03:25;;;;;;;6.50;2.88;;;;;;;;;;7361470;19;20541;-73
2023/10/07 10:06:08;;;;;;;6.82;3.20;;;;;;;;;;7366259;19;20564;-75
2023/10/07 10:08:44;;;;;;;5.65;3.10;;;;;;;;;;7387208;19;20003;-74
2023/10/07 10:11:41;;;;;;;6.75;3.40;;;;;;;;;;7363381;19;20387;-74
2023/10/07 10:16:47;;;;;;;7.03;3.45;;;;;;;;;;7366608;19;20009;-74
2023/10/07 10:19:24;;;;;;;9.02;4.28;;;;;;;;;;7366976;19;20006;-74
2023/10/07 10:21:51;;;;;;;13.82;7.68;;;;;;;;;;7367457;19;20089;-74
2023/10/07 10:24:22;;;;;;;7.53;3.22;;;;;;;;;;7366069;19;20406;-74
2023/10/07 10:26:50;;;;;;;6.15;3.20;;;;;;;;;;7366422;19;20365;-74
2023/10/07 10:29:25;;;;;;;7.20;3.33;;;;;;;;;;7387817;19;20006;-75
2023/10/07 10:31:52;;;;;;;7.80;3.65;;;;;;;;;;7365318;19;20006;-75
2023/10/07 10:34:20;;;;;;;6.15;3.25;;;;;;;;;;7364154;19;20070;-74
2023/10/07 10:36:49;;;;;;;6.28;3.00;;;;;;;;;;7366507;19;19998;-74
2023/10/07 10:39:20;;;;;;;11.07;3.10;;;;;;;;;;7364870;19;20044;-74
2023/10/07 10:41:46;;;;;;;7.63;3.47;;;;;;;;;;7366229;19;20031;-74
2023/10/07 10:44:12;;;;;;;6.93;2.65;;;;;;;;;;7385689;19;20108;-74
2023/10/07 10:46:46;;;;;;;10.77;3.50;;;;;;;;;;7366824;19;20006;-74
2023/10/07 10:49:16;;;;;;;7.05;3.17;;;;;;;;;;7365245;19;20017;-73
2023/10/07 10:51:50;;;;;;;8.38;3.70;;;;;;;;;;7365827;19;20551;-74
2023/10/07 10:54:17;;;;;;;6.50;3.15;;;;;;;;;;7363645;19;19999;-74
2023/10/07 10:56:47;;;;;;;7.22;3.40;;;;;;;;;;7387725;19;20003;-74
2023/10/07 10:59:14;;;;;;;9.00;3.72;;;;;;;;;;7365197;19;19999;-74
2023/10/07 11:01:44;;;;;;;9.52;3.50;;;;;;;;;;7365748;19;20018;-74
2023/10/07 11:04:12;;;;;;;9.02;3.00;;;;;;;;;;7363420;19;20010;-74
2023/10/07 11:06:39;;;;;;;6.60;2.97;;;;;;;;;;7365344;19;20030;-73
2023/10/07 11:09:05;;;;;;;6.90;2.60;;;;;;;;;;7367069;19;20008;-76
2023/10/07 11:11:31;;;;;;;6.40;3.10;;;;;;;;;;7385204;19;20022;-69
2023/10/07 11:13:56;;;;;;;9.73;2.95;;;;;;;;;;7360238;19;20035;-65
2023/10/07 11:16:22;;;;;;;6.70;2.90;;;;;;;;;;7363636;19;20006;-67
2023/10/07 11:18:49;;;;;;;7.55;3.20;;;;;;;;;;7368105;19;20098;-70
2023/10/07 11:21:18;;;;;;;8.15;3.35;;;;;;;;;;7369581;19;20095;-66
2023/10/07 11:23:49;;;;;;;5.78;2.85;;;;;;;;;;7389319;19;20088;-58
2023/10/07 11:26:16;;;;;;;5.68;3.08;;;;;;;;;;7364227;19;20022;-64
2023/10/07 11:28:43;;;;;;;8.40;3.35;;;;;;;;;;7363497;19;20085;-65
2023/10/07 11:31:08;;;;;;;6.63;3.15;;;;;;;;;;7362105;19;20010;-63
2023/10/07 11:33:34;;;;;;;8.75;3.15;;;;;;;;;;7362389;19;20022;-63
2023/10/07 11:36:02;;;;;;;6.95;3.28;;;;;;;;;;7364098;19;20013;-64
2023/10/07 11:38:28;;;;;;;6.72;3.03;;;;;;;;;;7385895;19;20349;-62
2023/10/07 11:40:55;;;;;;;7.15;3.63;;;;;;;;;;7362501;19;20030;-63
2023/10/07 11:43:21;;;;;;;6.28;3.22;;;;;;;;;;7362391;19;20827;-65
2023/10/07 11:45:47;;;;;;;7.30;3.08;;;;;;;;;;7365128;19;20003;-64
2023/10/07 11:48:13;;;;;;;7.88;2.88;;;;;;;;;;7363514;19;20021;-64
2023/10/07 11:50:39;;;;;;;6.70;2.70;;;;;;;;;;7383070;19;20028;-64
2023/10/07 11:53:05;;;;;;;5.72;2.95;;;;;;;;;;7358309;19;20018;-63
2023/10/07 11:55:34;;;;;;;6.35;3.03;;;;;;;;;;7367379;19;20018;-66
2023/10/07 12:00:34;;;;;;;6.88;3.40;;;;;;;;;;7399841;19;20683;-63
2023/10/07 12:03:04;;;;;;;5.75;3.00;;;;;;;;;;7395450;19;20082;-61
2023/10/07 12:05:31;;;;;;;9.20;3.30;;;;;;;;;;7420449;19;20355;-59
2023/10/07 12:08:04;;;;;;;7.72;3.67;;;;;;;;;;7400652;19;20006;-58
2023/10/07 12:10:36;;;;;;;8.60;3.03;;;;;;;;;;7400766;19;20014;-61
2023/10/07 12:13:03;;;;;;;7.85;3.40;;;;;;;;;;7397762;19;20014;-58
2023/10/07 12:15:29;;;;;;;7.78;3.50;;;;;;;;;;7400828;19;20002;-59
2023/10/07 12:17:54;;;;;;;6.43;3.20;;;;;;;;;;7400556;19;20054;-59
2023/10/07 12:20:21;;;;;;;14.43;8.40;;;;;;;;;;7417398;19;20038;-62
2023/10/07 12:22:46;;;;;;;8.18;3.90;;;;;;;;;;7396838;19;20082;-59
2023/10/07 12:25:16;;;;;;;6.97;3.70;;;;;;;;;;7399688;19;20483;-58
2023/10/07 12:27:45;;;;;;;8.13;3.80;;;;;;;;;;7399029;19;20369;-61
2023/10/07 12:30:11;;;;;;;7.05;3.42;;;;;;;;;;7397816;19;20028;-58
2023/10/07 12:32:39;;;;;;;6.50;3.17;;;;;;;;;;7419906;19;19998;-60
2023/10/07 12:35:05;;;;;;;6.32;3.53;;;;;;;;;;7397954;19;20092;-66
2023/10/07 12:37:31;;;;;;;12.00;3.20;;;;;;;;;;7392229;19;20404;-61
2023/10/07 12:39:56;;;;;;;7.28;3.45;;;;;;;;;;7398620;19;20018;-59
2023/10/07 12:42:25;;;;;;;7.78;3.15;;;;;;;;;;7390107;19;20360;-60
2023/10/07 12:44:51;;;;;;;6.22;2.58;;;;;;;;;;7396896;19;20010;-62
2023/10/07 12:47:16;;;;;;;7.10;3.63;;;;;;;;;;7421304;19;20479;-63
2023/10/07 12:49:45;;;;;;;45.38;35.75;;;;;;;;;;7399710;19;20010;-64
2023/10/07 12:52:11;;;;;;;44.85;30.20;;;;;;;;;;7400086;19;20088;-64
2023/10/07 12:54:36;;;;;;;81.45;48.65;;;;;;;;;;7399747;19;20006;-62
2023/10/07 12:57:03;;;;;;;266.63;235.30;;;;;;;;;;7401208;19;20010;-64
2023/10/07 12:59:35;;;;;;;32.13;24.02;;;;;;;;;;7416835;19;20006;-65
2023/10/07 13:02:03;;;;;;;9.50;3.70;;;;;;;;;;7400403;19;20018;-64
2023/10/07 13:04:35;;;;;;;102.82;92.10;;;;;;;;;;7396510;19;20115;-61
2023/10/07 13:07:03;;;;;;;56.88;36.20;;;;;;;;;;7399363;19;20391;-63
2023/10/07 13:09:32;;;;;;;60.15;35.72;;;;;;;;;;7399254;19;20014;-61
2023/10/07 13:11:58;;;;;;;32.13;22.38;;;;;;;;;;7370008;19;20079;-63
2023/10/07 13:14:27;;;;;;;145.13;112.53;;;;;;;;;;7393395;19;20021;-63
2023/10/07 13:16:59;;;;;;;34.42;21.98;;;;;;;;;;7372688;19;20033;-63
2023/10/07 13:19:26;;;;;;;109.35;77.68;;;;;;;;;;7369430;19;20010;-66
2023/10/07 13:21:55;;;;;;;19.67;10.52;;;;;;;;;;7371505;19;20030;-64
2023/10/07 13:24:22;;;;;;;23.95;12.43;;;;;;;;;;7367241;19;20460;-63
2023/10/07 13:26:48;;;;;;;13.60;8.27;;;;;;;;;;7369472;19;20009;-65
2023/10/07 13:29:13;;;;;;;11.48;6.95;;;;;;;;;;7392676;19;20493;-64
2023/10/07 13:31:38;;;;;;;12.43;8.52;;;;;;;;;;7371351;19;20687;-63
2023/10/07 13:34:06;;;;;;;8.35;4.07;;;;;;;;;;7371232;19;20011;-59
2023/10/07 13:36:32;;;;;;;8.30;4.13;;;;;;;;;;7371499;19;20006;-63
2023/10/07 13:39:00;;;;;;;8.32;3.83;;;;;;;;;;7367708;19;20019;-64
2023/10/07 13:41:27;;;;;;;7.80;3.28;;;;;;;;;;7393428;19;20037;-64
2023/10/07 13:43:53;;;;;;;7.20;3.17;;;;;;;;;;7367396;19;20017;-63
2023/10/07 13:46:18;;;;;;;4.57;2.30;;;;;;;;;;7371386;19;20074;-63
2023/10/07 13:48:44;;;;;;;8.32;3.30;;;;;;;;;;7370954;19;20102;-65
2023/10/07 13:51:10;;;;;;;6.57;3.13;;;;;;;;;;7370430;19;20550;-64
2023/10/07 13:56:32;;;;;;;6.60;3.13;;;;;;;;;;7371227;19;20005;-64
2023/10/07 13:59:03;;;;;;;8.27;3.30;;;;;;;;;;7368717;19;20600;-60
2023/10/07 14:01:29;;;;;;;9.60;3.42;;;;;;;;;;7369168;19;20014;-64
2023/10/07 14:03:55;;;;;;;7.40;4.03;;;;;;;;;;7366331;19;20032;-62
2023/10/07 14:06:20;;;;;;;9.05;3.55;;;;;;;;;;7369738;19;20006;-63
2023/10/07 14:08:45;;;;;;;8.00;3.58;;;;;;;;;;7374377;19;20014;-63
2023/10/07 14:11:11;;;;;;;7.07;2.97;;;;;;;;;;7389956;19;20472;-63
2023/10/07 14:13:39;;;;;;;7.03;2.85;;;;;;;;;;7368362;19;19998;-62
2023/10/07 14:16:11;;;;;;;6.20;3.20;;;;;;;;;;7367378;19;20642;-60
2023/10/07 14:18:37;;;;;;;4.97;2.65;;;;;;;;;;7369391;19;20045;-61
2023/10/07 14:21:07;;;;;;;8.68;3.20;;;;;;;;;;7369357;19;20375;-59
2023/10/07 14:23:34;;;;;;;6.97;3.15;;;;;;;;;;7385066;19;20027;-59
2023/10/07 14:26:03;;;;;;;8.45;3.53;;;;;;;;;;7368957;19;20064;-63
2023/10/07 14:28:29;;;;;;;11.40;8.15;;;;;;;;;;7369615;19;20007;-60
2023/10/07 14:30:55;;;;;;;11.13;6.97;;;;;;;;;;7369080;19;20011;-61
2023/10/07 14:33:21;;;;;;;17.40;8.18;;;;;;;;;;7367553;19;20358;-63
2023/10/07 14:35:48;;;;;;;9.02;3.50;;;;;;;;;;7368475;19;20477;-63
2023/10/07 14:38:14;;;;;;;324.02;232.98;;;;;;;;;;7389946;19;20278;-62
2023/10/07 14:40:42;;;;;;;139.73;77.35;;;;;;;;;;7367770;19;20006;-63
2023/10/07 14:43:12;;;;;;;17.92;11.90;;;;;;;;;;7368340;19;20401;-62
2023/10/07 14:45:39;;;;;;;12.57;8.15;;;;;;;;;;7369090;19;20007;-63
2023/10/07 14:48:05;;;;;;;6.32;3.17;;;;;;;;;;7369345;19;20015;-63
2023/10/07 14:50:40;;;;;;;131.82;98.80;;;;;;;;;;7392168;19;19998;-61
2023/10/07 14:53:09;;;;;;;336.60;203.35;;;;;;;;;;7364377;19;20010;-61
2023/10/07 14:55:34;;;;;;;34.70;18.65;;;;;;;;;;7367617;19;20842;-61
2023/10/07 14:58:00;;;;;;;176.30;115.82;;;;;;;;;;7367899;19;20014;-62
2023/10/07 15:00:28;;;;;;;306.08;222.70;;;;;;;;;;7366730;19;20007;-60
2023/10/07 15:02:54;;;;;;;69.05;38.75;;;;;;;;;;7365454;19;20078;-61
2023/10/07 15:05:20;;;;;;;28.17;16.58;;;;;;;;;;7390255;19;20010;-62
2023/10/07 15:07:46;;;;;;;17.23;9.38;;;;;;;;;;7368265;19;20014;-61
2023/10/07 15:10:11;;;;;;;95.65;61.47;;;;;;;;;;7368344;19;20400;-61
2023/10/07 15:12:38;;;;;;;457.13;379.58;;;;;;;;;;7364641;19;20078;-62
2023/10/07 15:15:06;;;;;;;60.90;23.42;;;;;;;;;;7364746;19;20017;-58
2023/10/07 15:17:34;;;;;;;15.25;7.80;;;;;;;;;;7381130;19;20011;-62
2023/10/07 15:20:00;;;;;;;12.57;7.53;;;;;;;;;;7356495;19;20482;-62
2023/10/07 15:22:25;;;;;;;11.40;4.15;;;;;;;;;;7358269;19;20010;-62
2023/10/07 15:24:51;;;;;;;8.27;3.47;;;;;;;;;;7360612;19;20041;-62
2023/10/07 15:27:16;;;;;;;7.25;3.13;;;;;;;;;;7366582;19;20022;-61